Time;durP1;ratioP1;P1;durP2;ratioP2;P2;SDS_P1;SDS_P2;PMS_P1;PMS_P2;Temp;Humidity;BMP_temperature;BMP_pressure;BME280_temperature;BME280_humidity;BME280_pressure;Samples;Min_cycle;Max_cycle;Signal;HPM_P1;HPM_P2
2024/03/09 00:01:45;;;;;;;12.70;8.73;;;;;;;;;;4943945;28;20440;-89
2024/03/09 00:04:21;;;;;;;14.17;9.87;;;;;;;;;;4963834;28;20495;-89
2024/03/09 00:06:52;;;;;;;14.87;8.13;;;;;;;;;;4972134;28;20472;-86
2024/03/09 00:09:29;;;;;;;11.77;9.03;;;;;;;;;;4971084;28;20451;-90
2024/03/09 00:12:02;;;;;;;16.40;8.30;;;;;;;;;;4968595;28;20484;-88
2024/03/09 00:14:45;;;;;;;12.90;9.03;;;;;;;;;;4973127;28;20714;-90
2024/03/09 00:17:26;;;;;;;12.70;8.43;;;;;;;;;;4978773;28;20451;-88
2024/03/09 00:20:04;;;;;;;12.73;8.63;;;;;;;;;;4974324;28;20449;-91
2024/03/09 00:22:59;;;;;;;11.80;7.80;;;;;;;;;;4970468;28;20792;-89
2024/03/09 00:25:33;;;;;;;9.40;7.40;;;;;;;;;;4968013;28;20486;-88
2024/03/09 00:28:08;;;;;;;10.87;7.93;;;;;;;;;;4964530;28;20460;-87
2024/03/09 00:30:42;;;;;;;11.13;8.27;;;;;;;;;;4966482;28;20428;-89
2024/03/09 00:33:26;;;;;;;13.03;8.77;;;;;;;;;;4964768;28;20467;-86
2024/03/09 00:35:59;;;;;;;11.50;8.57;;;;;;;;;;4961404;28;20831;-90
2024/03/09 00:38:30;;;;;;;10.87;8.23;;;;;;;;;;4966231;28;20463;-88
2024/03/09 00:41:01;;;;;;;10.43;8.10;;;;;;;;;;4967059;28;20464;-89
2024/03/09 00:43:43;;;;;;;9.97;8.00;;;;;;;;;;4965161;28;21015;-89
2024/03/09 00:46:26;;;;;;;11.90;7.53;;;;;;;;;;4966690;28;20556;-88
2024/03/09 00:49:00;;;;;;;12.10;7.80;;;;;;;;;;4969367;28;20831;-90
2024/03/09 00:51:48;;;;;;;12.73;9.00;;;;;;;;;;4981527;28;20448;-88
2024/03/09 00:54:22;;;;;;;10.53;7.47;;;;;;;;;;4979504;28;20455;-88
2024/03/09 00:56:54;;;;;;;13.80;8.27;;;;;;;;;;4980651;28;20484;-89
2024/03/09 00:59:25;;;;;;;13.90;8.63;;;;;;;;;;4979215;28;20493;-91
2024/03/09 01:01:55;;;;;;;10.20;8.60;;;;;;;;;;4977003;28;20569;-88
2024/03/09 01:04:30;;;;;;;10.73;7.47;;;;;;;;;;4979784;28;20449;-89
2024/03/09 01:07:01;;;;;;;11.07;7.40;;;;;;;;;;4975079;28;20465;-92
2024/03/09 01:09:31;;;;;;;11.30;8.07;;;;;;;;;;4994633;23;20498;-90
2024/03/09 01:12:18;;;;;;;11.40;8.10;;;;;;;;;;4989838;28;20455;-90
2024/03/09 01:15:00;;;;;;;10.57;7.70;;;;;;;;;;5006243;28;20478;-90
2024/03/09 01:17:36;;;;;;;10.00;7.90;;;;;;;;;;5006247;28;20535;-90
2024/03/09 01:20:12;;;;;;;12.23;8.10;;;;;;;;;;5003933;28;20449;-90
2024/03/09 01:22:43;;;;;;;12.20;7.90;;;;;;;;;;5003936;28;20451;-88
2024/03/09 01:25:11;;;;;;;14.03;7.60;;;;;;;;;;4981443;28;20477;-90
2024/03/09 01:27:42;;;;;;;10.67;6.43;;;;;;;;;;5000529;28;20447;-89
2024/03/09 01:30:11;;;;;;;11.30;7.17;;;;;;;;;;4999479;28;20804;-87
2024/03/09 01:32:50;;;;;;;10.67;7.43;;;;;;;;;;4993306;28;20453;-88
2024/03/09 01:35:24;;;;;;;10.33;8.20;;;;;;;;;;4984946;28;20508;-87
2024/03/09 01:38:13;;;;;;;9.47;7.33;;;;;;;;;;4984910;28;20523;-89
2024/03/09 01:40:56;;;;;;;11.50;8.50;;;;;;;;;;4987248;28;20451;-87
2024/03/09 01:43:36;;;;;;;11.70;7.47;;;;;;;;;;4989487;28;20442;-90
2024/03/09 01:46:11;;;;;;;13.80;8.10;;;;;;;;;;5009438;28;20503;-89
2024/03/09 01:48:49;;;;;;;12.70;7.13;;;;;;;;;;5008702;28;20440;-89
2024/03/09 01:51:19;;;;;;;9.73;7.90;;;;;;;;;;4995580;28;20456;-89
2024/03/09 01:53:59;;;;;;;8.30;6.10;;;;;;;;;;4998361;28;20502;-88
2024/03/09 01:56:31;;;;;;;14.37;7.80;;;;;;;;;;4998168;28;20459;-88
2024/03/09 01:59:01;;;;;;;10.90;7.87;;;;;;;;;;4996861;28;20494;-87
2024/03/09 02:01:30;;;;;;;13.40;8.20;;;;;;;;;;4995538;28;20523;-88
2024/03/09 02:04:04;;;;;;;9.83;7.10;;;;;;;;;;5009351;28;20466;-90
2024/03/09 02:06:32;;;;;;;10.40;7.20;;;;;;;;;;4998813;28;20476;-89
2024/03/09 02:09:07;;;;;;;11.57;7.67;;;;;;;;;;4991783;28;20467;-91
2024/03/09 02:11:42;;;;;;;12.10;7.70;;;;;;;;;;4991209;28;20438;-90
2024/03/09 02:14:18;;;;;;;9.70;7.67;;;;;;;;;;5002940;28;20476;-90
2024/03/09 02:16:52;;;;;;;10.47;8.17;;;;;;;;;;4988750;28;20469;-90
2024/03/09 02:19:20;;;;;;;8.03;6.53;;;;;;;;;;4976476;28;20765;-88
2024/03/09 02:21:52;;;;;;;12.13;8.07;;;;;;;;;;4995300;28;20993;-89
2024/03/09 02:24:35;;;;;;;9.67;7.10;;;;;;;;;;4983689;28;20486;-88
2024/03/09 02:27:07;;;;;;;9.30;7.27;;;;;;;;;;4982931;28;20479;-89
2024/03/09 02:29:42;;;;;;;12.47;7.83;;;;;;;;;;4999517;28;20459;-90
2024/03/09 02:32:15;;;;;;;9.40;6.73;;;;;;;;;;4984861;28;20466;-86
2024/03/09 02:34:48;;;;;;;8.93;7.10;;;;;;;;;;4979085;28;20498;-89
2024/03/09 02:37:25;;;;;;;11.57;8.27;;;;;;;;;;4989340;28;20466;-91
2024/03/09 02:39:59;;;;;;;12.33;8.27;;;;;;;;;;5008358;28;20442;-89
2024/03/09 02:42:34;;;;;;;10.73;8.20;;;;;;;;;;4998438;28;20463;-90
2024/03/09 02:45:10;;;;;;;11.80;7.70;;;;;;;;;;5012107;28;20478;-90
2024/03/09 02:47:41;;;;;;;12.13;6.97;;;;;;;;;;5010234;28;20477;-89
2024/03/09 02:50:14;;;;;;;11.50;7.93;;;;;;;;;;5012214;28;20487;-87
2024/03/09 02:53:00;;;;;;;11.87;8.03;;;;;;;;;;5002089;28;20462;-89
2024/03/09 02:55:53;;;;;;;11.10;8.00;;;;;;;;;;4988393;28;20489;-88
2024/03/09 02:58:38;;;;;;;12.13;7.10;;;;;;;;;;5003394;28;20423;-87
2024/03/09 03:01:33;;;;;;;10.57;8.37;;;;;;;;;;4986529;28;20439;-87
2024/03/09 03:04:11;;;;;;;11.83;8.10;;;;;;;;;;5253339;23;21414;-86
2024/03/09 03:06:53;;;;;;;11.97;8.00;;;;;;;;;;4963022;28;20513;-90
2024/03/09 03:09:21;;;;;;;12.17;8.10;;;;;;;;;;4964676;29;20493;-89
2024/03/09 03:11:51;;;;;;;8.93;6.60;;;;;;;;;;4964327;28;20461;-89
2024/03/09 03:14:20;;;;;;;14.40;8.53;;;;;;;;;;4949258;29;22001;-89
2024/03/09 03:16:48;;;;;;;11.33;7.60;;;;;;;;;;4946019;29;20458;-87
2024/03/09 03:19:16;;;;;;;11.17;7.73;;;;;;;;;;4957692;28;20555;-90
2024/03/09 03:21:43;;;;;;;11.23;8.17;;;;;;;;;;4954402;28;20560;-89
2024/03/09 03:24:13;;;;;;;13.17;8.83;;;;;;;;;;4954624;28;20511;-88
2024/03/09 03:26:41;;;;;;;12.53;8.50;;;;;;;;;;4954659;28;20501;-89
2024/03/09 03:29:08;;;;;;;9.10;6.80;;;;;;;;;;4937483;29;21170;-89
2024/03/09 03:31:38;;;;;;;11.83;8.17;;;;;;;;;;4936691;29;20470;-91
2024/03/09 03:34:07;;;;;;;15.80;9.60;;;;;;;;;;4950963;29;20462;-89
2024/03/09 03:36:37;;;;;;;12.60;9.27;;;;;;;;;;4956720;28;20486;-90
2024/03/09 03:39:12;;;;;;;14.77;8.17;;;;;;;;;;4964960;28;20477;-91
2024/03/09 03:41:41;;;;;;;10.93;8.20;;;;;;;;;;4961199;28;20453;-92
2024/03/09 03:44:12;;;;;;;13.33;9.00;;;;;;;;;;4943999;28;20486;-89
2024/03/09 03:46:40;;;;;;;11.40;8.20;;;;;;;;;;4961133;28;20485;-92
2024/03/09 03:49:07;;;;;;;9.73;7.23;;;;;;;;;;4960028;28;20444;-91
2024/03/09 03:51:35;;;;;;;12.63;7.37;;;;;;;;;;4942129;29;20525;-90
2024/03/09 03:54:04;;;;;;;10.97;6.77;;;;;;;;;;4939366;29;20458;-88
2024/03/09 03:56:31;;;;;;;10.30;7.43;;;;;;;;;;4953128;28;20514;-89
2024/03/09 03:58:58;;;;;;;13.63;8.70;;;;;;;;;;4941260;29;20517;-87
2024/03/09 04:01:26;;;;;;;10.30;7.83;;;;;;;;;;4953560;28;20458;-88
2024/03/09 04:03:55;;;;;;;10.30;7.33;;;;;;;;;;4943441;29;20461;-88
2024/03/09 04:06:23;;;;;;;13.63;8.17;;;;;;;;;;4957141;28;20501;-87
2024/03/09 04:08:50;;;;;;;9.87;7.57;;;;;;;;;;4957578;29;21105;-89
2024/03/09 04:11:21;;;;;;;11.33;8.40;;;;;;;;;;4943233;29;20529;-91
2024/03/09 04:13:49;;;;;;;13.40;8.87;;;;;;;;;;4938513;29;20468;-90
2024/03/09 04:16:16;;;;;;;12.17;8.60;;;;;;;;;;4938989;29;20488;-87
2024/03/09 04:18:48;;;;;;;11.30;7.50;;;;;;;;;;4941093;29;20489;-86
2024/03/09 04:21:18;;;;;;;12.43;8.50;;;;;;;;;;4948737;29;20458;-89
2024/03/09 04:23:50;;;;;;;11.63;7.17;;;;;;;;;;4955261;28;20497;-89
2024/03/09 04:26:21;;;;;;;12.60;8.20;;;;;;;;;;4954249;28;20466;-91
2024/03/09 04:28:50;;;;;;;12.97;8.00;;;;;;;;;;4952068;29;20569;-87
2024/03/09 04:31:21;;;;;;;15.37;9.03;;;;;;;;;;4950968;29;20530;-86
2024/03/09 04:33:52;;;;;;;13.00;8.53;;;;;;;;;;4939211;29;20984;-88
2024/03/09 04:36:29;;;;;;;11.87;8.87;;;;;;;;;;4954694;28;20489;-86
2024/03/09 04:39:14;;;;;;;12.87;8.37;;;;;;;;;;4937617;29;20516;-88
2024/03/09 04:41:43;;;;;;;13.20;9.27;;;;;;;;;;4950657;28;20469;-90
2024/03/09 04:44:12;;;;;;;11.10;7.57;;;;;;;;;;4937949;29;20570;-86
2024/03/09 04:46:44;;;;;;;11.57;7.83;;;;;;;;;;4948530;28;21035;-87
2024/03/09 04:49:19;;;;;;;16.70;9.23;;;;;;;;;;4947336;28;20545;-88
2024/03/09 04:51:49;;;;;;;13.67;9.03;;;;;;;;;;4955249;29;20477;-89
2024/03/09 04:54:33;;;;;;;12.10;8.60;;;;;;;;;;4945118;28;21059;-87
2024/03/09 04:57:05;;;;;;;12.87;8.33;;;;;;;;;;5145674;22;20958;-86
2024/03/09 04:59:39;;;;;;;16.13;8.57;;;;;;;;;;5008390;28;20462;-89
2024/03/09 05:02:08;;;;;;;14.20;8.40;;;;;;;;;;4980962;28;20483;-89
2024/03/09 05:04:38;;;;;;;14.77;8.63;;;;;;;;;;4976088;28;20440;-90
2024/03/09 05:07:06;;;;;;;13.50;9.03;;;;;;;;;;4973105;28;20767;-89
2024/03/09 05:09:36;;;;;;;13.80;9.00;;;;;;;;;;4977481;28;20456;-91
2024/03/09 05:12:12;;;;;;;13.80;9.23;;;;;;;;;;4979908;28;20465;-87
2024/03/09 05:14:52;;;;;;;13.43;9.00;;;;;;;;;;4975905;28;20493;-87
2024/03/09 05:17:26;;;;;;;12.30;7.90;;;;;;;;;;4978353;28;20475;-88
2024/03/09 05:20:12;;;;;;;12.27;8.63;;;;;;;;;;4976782;28;20456;-87
2024/03/09 05:22:39;;;;;;;12.37;8.30;;;;;;;;;;4982160;28;20982;-88
2024/03/09 05:25:14;;;;;;;12.90;8.27;;;;;;;;;;4979711;28;20511;-87
2024/03/09 05:27:45;;;;;;;10.80;8.83;;;;;;;;;;4979302;28;20466;-88
2024/03/09 05:30:18;;;;;;;15.40;10.97;;;;;;;;;;4972214;28;20474;-90
2024/03/09 05:32:53;;;;;;;14.00;9.07;;;;;;;;;;4986669;28;20444;-91
2024/03/09 05:35:29;;;;;;;16.10;9.77;;;;;;;;;;4984053;28;20482;-90
2024/03/09 05:38:05;;;;;;;11.37;8.07;;;;;;;;;;4977842;28;20461;-88
2024/03/09 05:40:34;;;;;;;9.70;7.30;;;;;;;;;;4976124;28;20448;-87
2024/03/09 05:43:13;;;;;;;13.67;8.43;;;;;;;;;;4977647;28;20490;-89
2024/03/09 05:45:46;;;;;;;15.23;10.57;;;;;;;;;;4974766;28;20503;-87
2024/03/09 05:48:18;;;;;;;11.73;9.60;;;;;;;;;;4975579;28;20484;-86
2024/03/09 05:50:49;;;;;;;12.97;8.20;;;;;;;;;;4973514;28;20547;-85
2024/03/09 05:53:34;;;;;;;14.20;8.73;;;;;;;;;;4974771;28;20444;-86
2024/03/09 05:56:05;;;;;;;11.53;9.13;;;;;;;;;;4973029;28;20492;-87
2024/03/09 05:58:35;;;;;;;16.53;9.33;;;;;;;;;;4974591;28;20469;-88
2024/03/09 06:01:08;;;;;;;13.23;8.07;;;;;;;;;;4975503;28;20465;-89
2024/03/09 06:03:39;;;;;;;11.20;8.20;;;;;;;;;;4979110;28;20487;-88
2024/03/09 06:06:23;;;;;;;13.90;9.00;;;;;;;;;;4977515;28;20474;-90
2024/03/09 06:08:51;;;;;;;14.80;8.27;;;;;;;;;;4976677;28;20513;-87
2024/03/09 06:11:21;;;;;;;14.80;9.07;;;;;;;;;;4976049;28;21399;-88
2024/03/09 06:13:49;;;;;;;15.20;10.37;;;;;;;;;;4979569;28;20464;-88
2024/03/09 06:16:18;;;;;;;13.87;8.73;;;;;;;;;;4976336;28;20496;-86
2024/03/09 06:18:59;;;;;;;13.10;9.30;;;;;;;;;;4978704;28;20518;-87
2024/03/09 06:21:31;;;;;;;13.83;9.10;;;;;;;;;;4974936;28;20543;-90
2024/03/09 06:24:04;;;;;;;15.23;10.30;;;;;;;;;;4980459;28;20470;-86
2024/03/09 06:26:36;;;;;;;13.37;10.40;;;;;;;;;;4979617;28;20479;-85
2024/03/09 06:29:16;;;;;;;16.63;9.73;;;;;;;;;;4974456;28;20546;-88
2024/03/09 06:31:44;;;;;;;15.13;9.83;;;;;;;;;;4978804;28;21436;-89
2024/03/09 06:34:14;;;;;;;14.70;10.00;;;;;;;;;;4980816;28;20448;-86
2024/03/09 06:36:55;;;;;;;16.03;10.17;;;;;;;;;;4981573;28;20499;-88
2024/03/09 06:39:32;;;;;;;12.07;7.73;;;;;;;;;;4969813;28;20453;-90
2024/03/09 06:42:05;;;;;;;16.00;9.70;;;;;;;;;;4984175;28;20444;-86
2024/03/09 06:44:37;;;;;;;14.77;10.37;;;;;;;;;;4988802;28;20456;-87
2024/03/09 06:47:23;;;;;;;11.17;7.50;;;;;;;;;;4990524;28;20458;-89
2024/03/09 06:49:56;;;;;;;14.67;9.50;;;;;;;;;;4991116;28;20455;-87
2024/03/09 06:52:33;;;;;;;14.43;8.73;;;;;;;;;;4988471;28;20483;-88
2024/03/09 06:55:12;;;;;;;12.80;8.70;;;;;;;;;;4991000;28;20495;-88
2024/03/09 06:57:41;;;;;;;17.90;10.70;;;;;;;;;;4983712;28;20472;-89
2024/03/09 07:00:14;;;;;;;15.23;9.90;;;;;;;;;;4981925;28;20501;-90
2024/03/09 07:02:44;;;;;;;16.17;9.80;;;;;;;;;;4982042;28;20435;-86
2024/03/09 07:05:12;;;;;;;13.93;8.70;;;;;;;;;;4983943;28;20486;-88
2024/03/09 07:07:46;;;;;;;15.37;9.77;;;;;;;;;;4982333;28;20928;-89
2024/03/09 07:10:14;;;;;;;15.87;10.33;;;;;;;;;;4984191;28;20455;-86
2024/03/09 07:12:50;;;;;;;14.93;9.50;;;;;;;;;;4981874;28;20459;-87
2024/03/09 07:15:20;;;;;;;15.40;10.30;;;;;;;;;;4983520;28;20496;-87
2024/03/09 07:17:50;;;;;;;13.20;9.13;;;;;;;;;;4987156;28;20654;-88
2024/03/09 07:20:23;;;;;;;15.27;9.50;;;;;;;;;;5065035;23;20445;-89
2024/03/09 07:22:54;;;;;;;11.40;8.10;;;;;;;;;;4988994;28;20470;-90
2024/03/09 07:25:25;;;;;;;15.07;9.73;;;;;;;;;;5173400;23;20561;-87
2024/03/09 07:27:54;;;;;;;14.40;8.90;;;;;;;;;;4973449;28;20456;-87
2024/03/09 07:30:24;;;;;;;14.27;8.77;;;;;;;;;;4975632;28;20470;-87
2024/03/09 07:32:56;;;;;;;17.17;9.47;;;;;;;;;;4976133;28;20519;-86
2024/03/09 07:35:27;;;;;;;11.93;7.90;;;;;;;;;;4969268;28;20590;-88
2024/03/09 07:37:58;;;;;;;11.40;9.27;;;;;;;;;;4971300;28;20452;-89
2024/03/09 07:40:29;;;;;;;11.83;8.73;;;;;;;;;;4972149;28;20558;-90
2024/03/09 07:43:01;;;;;;;9.97;8.10;;;;;;;;;;4970583;28;21487;-87
2024/03/09 07:45:29;;;;;;;12.90;9.30;;;;;;;;;;4971623;28;21062;-86
2024/03/09 07:48:03;;;;;;;12.70;9.47;;;;;;;;;;4970443;28;20510;-87
2024/03/09 07:50:33;;;;;;;12.67;9.57;;;;;;;;;;4971107;28;20498;-91
2024/03/09 07:53:06;;;;;;;12.87;9.47;;;;;;;;;;4986593;28;20447;-91
2024/03/09 07:55:43;;;;;;;11.67;9.43;;;;;;;;;;4993096;28;20590;-90
2024/03/09 07:58:12;;;;;;;14.20;9.83;;;;;;;;;;4996329;28;21201;-91
2024/03/09 08:01:03;;;;;;;15.37;9.60;;;;;;;;;;4994235;28;20455;-90
2024/03/09 08:03:36;;;;;;;13.70;9.50;;;;;;;;;;5012592;28;20469;-89
2024/03/09 08:06:10;;;;;;;16.57;9.70;;;;;;;;;;4995190;28;20488;-90
2024/03/09 08:08:44;;;;;;;15.17;10.10;;;;;;;;;;4988989;28;20463;-86
2024/03/09 08:11:22;;;;;;;14.70;9.67;;;;;;;;;;4985088;28;20463;-87
2024/03/09 08:14:03;;;;;;;13.80;9.00;;;;;;;;;;4982703;28;20440;-87
2024/03/09 08:16:47;;;;;;;16.80;10.57;;;;;;;;;;4981553;28;20492;-85
2024/03/09 08:19:20;;;;;;;14.30;9.03;;;;;;;;;;4987006;28;21023;-88
2024/03/09 08:21:51;;;;;;;16.60;9.10;;;;;;;;;;4988570;28;20491;-90
2024/03/09 08:24:28;;;;;;;16.07;10.13;;;;;;;;;;4988927;28;20472;-89
2024/03/09 08:27:21;;;;;;;13.60;9.27;;;;;;;;;;4988388;28;20436;-88
2024/03/09 08:30:03;;;;;;;16.57;9.83;;;;;;;;;;4983178;28;20476;-87
2024/03/09 08:36:43;;;;;;;13.23;8.50;;;;;;;;;;4963994;28;20852;-86
2024/03/09 08:39:56;;;;;;;14.33;9.50;;;;;;;;;;4980646;28;20431;-86
2024/03/09 08:46:18;;;;;;;13.37;9.43;;;;;;;;;;4984706;28;20451;-87
2024/03/09 08:49:00;;;;;;;14.40;9.27;;;;;;;;;;4987598;28;20543;-90
2024/03/09 08:52:13;;;;;;;15.37;9.53;;;;;;;;;;4985848;28;20508;-89
2024/03/09 08:55:18;;;;;;;12.10;7.83;;;;;;;;;;4980615;28;20487;-91
2024/03/09 08:57:51;;;;;;;14.80;8.90;;;;;;;;;;4979958;28;20447;-90
2024/03/09 09:00:25;;;;;;;11.83;7.70;;;;;;;;;;4985827;28;20463;-88
2024/03/09 09:02:56;;;;;;;15.73;9.70;;;;;;;;;;4981853;28;20460;-87
2024/03/09 09:05:26;;;;;;;14.60;9.33;;;;;;;;;;4983981;28;20634;-87
2024/03/09 09:07:58;;;;;;;13.27;9.67;;;;;;;;;;4983988;28;20466;-87
2024/03/09 09:10:28;;;;;;;13.43;9.70;;;;;;;;;;4988767;28;20464;-90
2024/03/09 09:13:00;;;;;;;14.07;9.77;;;;;;;;;;4987614;28;20464;-90
2024/03/09 09:15:27;;;;;;;10.87;8.80;;;;;;;;;;4978884;28;20571;-88
2024/03/09 09:17:58;;;;;;;14.33;8.70;;;;;;;;;;4979458;28;20460;-89
2024/03/09 09:20:30;;;;;;;14.53;8.77;;;;;;;;;;4979432;28;20475;-88
2024/03/09 09:23:05;;;;;;;13.47;10.60;;;;;;;;;;4976325;28;20465;-88
2024/03/09 09:25:49;;;;;;;13.53;8.60;;;;;;;;;;4983986;28;20486;-87
2024/03/09 09:28:32;;;;;;;16.60;7.90;;;;;;;;;;4976008;28;20862;-89
2024/03/09 09:31:00;;;;;;;15.10;9.57;;;;;;;;;;4977556;28;20471;-88
2024/03/09 09:33:41;;;;;;;14.00;10.10;;;;;;;;;;4976758;28;20534;-89
2024/03/09 09:36:16;;;;;;;13.87;10.80;;;;;;;;;;4979118;28;20497;-88
2024/03/09 09:38:46;;;;;;;13.33;9.33;;;;;;;;;;4984501;28;20474;-88
2024/03/09 09:41:18;;;;;;;10.67;8.30;;;;;;;;;;4985715;28;20483;-87
2024/03/09 09:43:53;;;;;;;13.23;9.23;;;;;;;;;;4976984;28;20458;-87
2024/03/09 09:46:20;;;;;;;16.97;11.40;;;;;;;;;;4987324;28;20868;-88
2024/03/09 09:48:52;;;;;;;10.77;6.73;;;;;;;;;;4977471;28;20452;-87
2024/03/09 09:52:07;;;;;;;12.07;7.67;;;;;;;;;;4978920;28;20436;-87
2024/03/09 09:54:52;;;;;;;14.27;9.03;;;;;;;;;;4990450;28;20455;-86
2024/03/09 09:57:59;;;;;;;11.23;7.80;;;;;;;;;;4990837;28;20967;-86
2024/03/09 10:00:37;;;;;;;16.33;9.70;;;;;;;;;;4988793;28;20460;-88
2024/03/09 10:03:21;;;;;;;15.20;8.93;;;;;;;;;;4981603;28;20473;-86
2024/03/09 10:05:57;;;;;;;12.60;9.87;;;;;;;;;;4987576;28;20501;-85
2024/03/09 10:11:39;;;;;;;11.87;9.30;;;;;;;;;;4991299;28;20466;-88
2024/03/09 10:14:45;;;;;;;13.40;9.70;;;;;;;;;;4998858;28;20443;-89
2024/03/09 10:17:27;;;;;;;11.80;8.00;;;;;;;;;;4998040;28;20554;-88
2024/03/09 10:23:29;;;;;;;11.37;8.80;;;;;;;;;;5002462;28;20525;-93
2024/03/09 10:26:16;;;;;;;13.77;9.50;;;;;;;;;;4994453;28;20486;-92
2024/03/09 10:28:52;;;;;;;10.80;8.87;;;;;;;;;;4991590;28;20463;-88
2024/03/09 10:31:22;;;;;;;11.30;9.07;;;;;;;;;;4994854;28;20459;-88
2024/03/09 10:34:08;;;;;;;11.20;9.30;;;;;;;;;;4990219;28;20535;-87
2024/03/09 10:36:37;;;;;;;10.13;7.70;;;;;;;;;;4982937;28;20499;-87
2024/03/09 10:39:07;;;;;;;11.80;9.23;;;;;;;;;;4986462;28;20452;-88
2024/03/09 10:41:44;;;;;;;12.90;9.93;;;;;;;;;;4982977;28;20495;-87
2024/03/09 10:44:16;;;;;;;10.87;8.73;;;;;;;;;;4984116;28;20480;-89
2024/03/09 10:54:54;;;;;;;12.93;9.13;;;;;;;;;;4961036;28;20584;-87
2024/03/09 10:57:39;;;;;;;12.97;9.80;;;;;;;;;;4980063;28;20839;-88
2024/03/09 11:00:28;;;;;;;16.43;10.13;;;;;;;;;;4970629;28;21851;-90
2024/03/09 11:13:44;;;;;;;13.00;9.40;;;;;;;;;;6116381;22;1675674;-91
2024/03/09 11:16:15;;;;;;;13.87;9.97;;;;;;;;;;6183479;23;20238;-92
2024/03/09 11:18:50;;;;;;;12.67;9.00;;;;;;;;;;6158854;23;20402;-91
2024/03/09 11:21:35;;;;;;;13.20;9.83;;;;;;;;;;6184726;23;20481;-90
2024/03/09 11:24:18;;;;;;;13.50;9.77;;;;;;;;;;6160381;23;20390;-92
2024/03/09 11:26:56;;;;;;;11.23;8.07;;;;;;;;;;6160096;23;20438;-89
2024/03/09 11:30:05;;;;;;;13.37;9.77;;;;;;;;;;6175582;23;20469;-90
2024/03/09 11:32:46;;;;;;;10.37;7.60;;;;;;;;;;6146375;23;20446;-89
2024/03/09 11:35:33;;;;;;;11.80;8.60;;;;;;;;;;6146885;23;20426;-91
2024/03/09 11:38:16;;;;;;;9.63;7.67;;;;;;;;;;6148598;23;20449;-90
2024/03/09 11:41:09;;;;;;;12.03;8.87;;;;;;;;;;6173401;23;20493;-88
2024/03/09 11:43:42;;;;;;;14.27;8.90;;;;;;;;;;6148269;23;20409;-88
2024/03/09 11:46:14;;;;;;;13.73;8.60;;;;;;;;;;6172139;23;20441;-88
2024/03/09 11:48:50;;;;;;;13.47;9.87;;;;;;;;;;6161518;23;20430;-86
2024/03/09 11:51:28;;;;;;;11.07;8.30;;;;;;;;;;6145081;23;20413;-90
2024/03/09 11:54:04;;;;;;;11.30;8.00;;;;;;;;;;6145786;23;20532;-89
2024/03/09 11:56:47;;;;;;;12.30;8.90;;;;;;;;;;6172739;23;20441;-90
2024/03/09 11:59:23;;;;;;;11.37;7.37;;;;;;;;;;6140998;23;20824;-87
2024/03/09 12:02:38;;;;;;;10.33;7.37;;;;;;;;;;6143801;23;20545;-87
2024/03/09 12:05:16;;;;;;;14.40;9.33;;;;;;;;;;6143223;23;20430;-88
2024/03/09 12:08:08;;;;;;;12.23;7.67;;;;;;;;;;6139333;23;20459;-88
2024/03/09 12:10:48;;;;;;;13.27;8.87;;;;;;;;;;6114407;23;20458;-89
2024/03/09 12:13:20;;;;;;;8.97;6.83;;;;;;;;;;6112871;23;20415;-86
2024/03/09 12:16:07;;;;;;;14.10;9.60;;;;;;;;;;6109027;23;20459;-86
2024/03/09 12:18:39;;;;;;;10.60;7.57;;;;;;;;;;6132373;23;20430;-89
2024/03/09 12:21:15;;;;;;;10.17;7.80;;;;;;;;;;6110364;23;20412;-87
2024/03/09 12:23:44;;;;;;;12.60;8.60;;;;;;;;;;6110838;23;20418;-87
2024/03/09 12:26:14;;;;;;;10.50;7.80;;;;;;;;;;6108086;23;20443;-86
2024/03/09 12:29:03;;;;;;;9.80;7.30;;;;;;;;;;6122572;23;20403;-90
2024/03/09 12:31:40;;;;;;;8.93;6.80;;;;;;;;;;6100365;23;20500;-92
2024/03/09 12:37:52;;;;;;;10.17;7.70;;;;;;;;;;6136831;23;20403;-89
2024/03/09 12:40:33;;;;;;;9.47;6.97;;;;;;;;;;6122111;23;20399;-90
2024/03/09 12:43:08;;;;;;;10.93;8.50;;;;;;;;;;6123649;23;20448;-91
2024/03/09 12:46:06;;;;;;;9.63;7.93;;;;;;;;;;6162974;23;20463;-87
2024/03/09 12:48:54;;;;;;;9.70;7.77;;;;;;;;;;6147599;23;20399;-88
2024/03/09 12:51:32;;;;;;;9.73;7.20;;;;;;;;;;6154349;23;20441;-87
2024/03/09 12:54:09;;;;;;;12.50;8.17;;;;;;;;;;6182340;23;20394;-86
2024/03/09 12:56:48;;;;;;;9.37;7.70;;;;;;;;;;6156669;23;20475;-92
2024/03/09 12:59:31;;;;;;;10.50;8.50;;;;;;;;;;6148662;23;20405;-87
2024/03/09 13:02:09;;;;;;;9.77;7.03;;;;;;;;;;6145152;23;20458;-89
2024/03/09 13:04:56;;;;;;;10.50;7.60;;;;;;;;;;6151548;23;20422;-91
2024/03/09 13:08:00;;;;;;;7.10;6.33;;;;;;;;;;6143783;23;20395;-89
2024/03/09 13:11:11;;;;;;;8.20;6.83;;;;;;;;;;6119737;23;20430;-87
2024/03/09 13:14:02;;;;;;;9.17;6.37;;;;;;;;;;6147288;23;20442;-86
2024/03/09 13:17:16;;;;;;;8.60;7.00;;;;;;;;;;6083487;23;20449;-88
2024/03/09 13:26:57;;;;;;;8.77;6.50;;;;;;;;;;6191643;23;20537;-86
2024/03/09 13:29:31;;;;;;;7.83;6.17;;;;;;;;;;6193498;23;20516;-86
2024/03/09 13:35:35;;;;;;;7.40;6.10;;;;;;;;;;6168550;23;20450;-88
2024/03/09 13:38:07;;;;;;;10.43;6.70;;;;;;;;;;6197183;23;20397;-88
2024/03/09 13:40:39;;;;;;;8.50;5.87;;;;;;;;;;6198979;23;20410;-85
2024/03/09 13:43:12;;;;;;;7.67;6.37;;;;;;;;;;6198617;23;20453;-87
2024/03/09 13:45:50;;;;;;;7.63;6.00;;;;;;;;;;6196761;23;20429;-86
2024/03/09 13:48:19;;;;;;;24.83;22.33;;;;;;;;;;6197615;23;20440;-86
2024/03/09 13:50:57;;;;;;;8.03;6.73;;;;;;;;;;6198914;23;20433;-88
2024/03/09 13:53:33;;;;;;;6.07;5.47;;;;;;;;;;6196414;23;20480;-86
2024/03/09 13:56:16;;;;;;;6.27;5.07;;;;;;;;;;6197539;23;20443;-92
2024/03/09 13:58:54;;;;;;;5.77;5.10;;;;;;;;;;6195327;23;20464;-86
2024/03/09 14:01:40;;;;;;;6.90;5.30;;;;;;;;;;6201660;23;20453;-92
2024/03/09 14:04:11;;;;;;;10.57;5.37;;;;;;;;;;6196248;23;20406;-88
2024/03/09 14:07:14;;;;;;;4.57;3.97;;;;;;;;;;6165807;23;20465;-86
2024/03/09 14:09:49;;;;;;;5.53;3.87;;;;;;;;;;6168603;23;20427;-88
2024/03/09 14:12:28;;;;;;;4.97;3.90;;;;;;;;;;6168820;23;20400;-88
2024/03/09 14:15:00;;;;;;;4.77;3.90;;;;;;;;;;6170083;23;20440;-86
2024/03/09 14:17:37;;;;;;;4.53;3.60;;;;;;;;;;6170894;23;20406;-88
2024/03/09 14:20:22;;;;;;;4.97;3.70;;;;;;;;;;6129303;23;20388;-91
2024/03/09 14:23:01;;;;;;;4.60;3.90;;;;;;;;;;6149528;23;20454;-91
2024/03/09 14:28:54;;;;;;;4.30;3.23;;;;;;;;;;6148418;23;20383;-87
2024/03/09 14:31:51;;;;;;;3.07;2.77;;;;;;;;;;6111860;23;20427;-86
2024/03/09 14:34:35;;;;;;;2.83;2.60;;;;;;;;;;6114215;23;20402;-91
2024/03/09 14:37:09;;;;;;;3.50;3.20;;;;;;;;;;6126063;23;20402;-90
2024/03/09 14:39:37;;;;;;;4.90;4.27;;;;;;;;;;6150624;23;20446;-91
2024/03/09 14:42:17;;;;;;;5.10;3.63;;;;;;;;;;6165381;23;20431;-90
2024/03/09 14:44:49;;;;;;;4.20;3.80;;;;;;;;;;6158531;23;20450;-90
2024/03/09 14:47:37;;;;;;;4.50;2.77;;;;;;;;;;6129304;23;20468;-87
2024/03/09 14:50:08;;;;;;;5.33;3.33;;;;;;;;;;6171617;23;20436;-86
2024/03/09 14:52:53;;;;;;;4.50;3.00;;;;;;;;;;6171461;23;20738;-87
2024/03/09 14:55:44;;;;;;;3.80;3.17;;;;;;;;;;6158598;23;20692;-87
2024/03/09 14:58:18;;;;;;;6.90;3.80;;;;;;;;;;6146743;23;20406;-86
2024/03/09 15:00:51;;;;;;;3.87;2.87;;;;;;;;;;6156149;23;20395;-90
2024/03/09 15:03:35;;;;;;;4.03;3.10;;;;;;;;;;6158341;23;20463;-88
2024/03/09 15:06:11;;;;;;;3.40;3.10;;;;;;;;;;6156570;23;20410;-91
2024/03/09 15:08:47;;;;;;;3.90;3.53;;;;;;;;;;6153987;23;20407;-93
2024/03/09 15:11:17;;;;;;;3.50;3.00;;;;;;;;;;6149245;23;20407;-88
2024/03/09 15:13:53;;;;;;;3.70;2.90;;;;;;;;;;6147824;23;20477;-88
2024/03/09 15:16:37;;;;;;;3.50;2.77;;;;;;;;;;6169792;23;20407;-89
2024/03/09 15:19:17;;;;;;;3.90;3.40;;;;;;;;;;6144881;23;20417;-87
2024/03/09 15:21:48;;;;;;;4.97;3.33;;;;;;;;;;6143217;23;20414;-88
2024/03/09 15:24:17;;;;;;;3.10;2.90;;;;;;;;;;6143076;23;20438;-86
2024/03/09 15:26:54;;;;;;;2.40;2.13;;;;;;;;;;6143077;23;20414;-88
2024/03/09 15:29:39;;;;;;;5.03;2.57;;;;;;;;;;6169626;23;20443;-87
2024/03/09 15:32:09;;;;;;;2.23;1.37;;;;;;;;;;6139659;23;20497;-87
2024/03/09 15:34:38;;;;;;;3.00;2.33;;;;;;;;;;6136893;23;20827;-88
2024/03/09 15:37:13;;;;;;;2.57;2.10;;;;;;;;;;6136669;23;20505;-87
2024/03/09 15:39:42;;;;;;;3.30;1.90;;;;;;;;;;6137412;23;20406;-85
2024/03/09 15:42:16;;;;;;;4.67;2.40;;;;;;;;;;6137674;23;20442;-89
2024/03/09 15:44:46;;;;;;;2.60;2.37;;;;;;;;;;6135289;23;20415;-88
2024/03/09 15:47:19;;;;;;;3.43;2.37;;;;;;;;;;6137076;23;20421;-88
2024/03/09 15:49:47;;;;;;;4.10;2.90;;;;;;;;;;6137526;23;20421;-86
2024/03/09 15:52:21;;;;;;;3.80;2.83;;;;;;;;;;6139447;23;20434;-86
2024/03/09 15:55:18;;;;;;;5.27;3.40;;;;;;;;;;6143512;23;20445;-87
2024/03/09 15:57:46;;;;;;;3.27;2.70;;;;;;;;;;6139637;23;20884;-87
2024/03/09 16:00:14;;;;;;;4.43;3.03;;;;;;;;;;6163968;23;20406;-86
2024/03/09 16:02:45;;;;;;;3.83;3.10;;;;;;;;;;6142140;23;20469;-87
2024/03/09 16:05:19;;;;;;;3.67;3.27;;;;;;;;;;6140259;23;20975;-88
2024/03/09 16:07:49;;;;;;;4.20;3.07;;;;;;;;;;6140165;23;20419;-88
2024/03/09 16:10:30;;;;;;;6.43;3.50;;;;;;;;;;6142158;23;20417;-87
2024/03/09 16:12:59;;;;;;;3.47;2.93;;;;;;;;;;6151715;23;20418;-91
2024/03/09 16:15:33;;;;;;;4.20;3.47;;;;;;;;;;6164590;23;20721;-91
2024/03/09 16:18:03;;;;;;;5.43;3.90;;;;;;;;;;6212350;23;20397;-90